sensor_id;sensor_type;location;lat;lon;timestamp;pressure;altitude;pressure_sealevel;temperature;humidity
40708;BME280;26392;42.696;23.350;2022-12-22T00:00:16;95585.44;;;-0.75;100.00
40708;BME280;26392;42.696;23.350;2022-12-22T00:03:00;95583.25;;;-0.71;100.00
40708;BME280;26392;42.696;23.350;2022-12-22T00:05:44;95581.75;;;-0.74;100.00
40708;BME280;26392;42.696;23.350;2022-12-22T00:08:28;95582.41;;;-0.72;100.00
40708;BME280;26392;42.696;23.350;2022-12-22T00:11:12;95574.97;;;-0.61;100.00
40708;BME280;26392;42.696;23.350;2022-12-22T00:13:57;95574.09;;;-0.77;100.00
40708;BME280;26392;42.696;23.350;2022-12-22T00:16:41;95573.41;;;-0.79;100.00
40708;BME280;26392;42.696;23.350;2022-12-22T00:19:26;95571.00;;;-0.88;100.00
40708;BME280;26392;42.696;23.350;2022-12-22T00:22:19;95582.00;;;-0.83;100.00
40708;BME280;26392;42.696;23.350;2022-12-22T00:25:03;95579.38;;;-0.92;100.00
40708;BME280;26392;42.696;23.350;2022-12-22T00:27:47;95581.03;;;-0.91;100.00
40708;BME280;26392;42.696;23.350;2022-12-22T00:30:31;95586.56;;;-0.92;100.00
40708;BME280;26392;42.696;23.350;2022-12-22T00:33:17;95583.72;;;-0.91;100.00
40708;BME280;26392;42.696;23.350;2022-12-22T00:36:03;95583.25;;;-0.94;100.00
40708;BME280;26392;42.696;23.350;2022-12-22T00:38:49;95568.69;;;-0.92;100.00
40708;BME280;26392;42.696;23.350;2022-12-22T00:41:33;95580.69;;;-0.87;100.00
40708;BME280;26392;42.696;23.350;2022-12-22T00:44:16;95575.88;;;-0.92;100.00
40708;BME280;26392;42.696;23.350;2022-12-22T00:47:00;95581.50;;;-0.87;100.00
40708;BME280;26392;42.696;23.350;2022-12-22T00:49:46;95566.38;;;-0.95;100.00
40708;BME280;26392;42.696;23.350;2022-12-22T00:52:31;95574.69;;;-0.89;100.00
40708;BME280;26392;42.696;23.350;2022-12-22T00:55:16;95560.75;;;-0.85;100.00
40708;BME280;26392;42.696;23.350;2022-12-22T00:58:02;95569.03;;;-0.95;100.00
40708;BME280;26392;42.696;23.350;2022-12-22T01:00:47;95564.44;;;-1.09;100.00
40708;BME280;26392;42.696;23.350;2022-12-22T01:03:31;95561.28;;;-1.13;100.00
40708;BME280;26392;42.696;23.350;2022-12-22T01:06:15;95565.44;;;-1.10;100.00
40708;BME280;26392;42.696;23.350;2022-12-22T01:08:59;95558.59;;;-1.13;100.00
40708;BME280;26392;42.696;23.350;2022-12-22T01:11:43;95551.34;;;-1.27;100.00
40708;BME280;26392;42.696;23.350;2022-12-22T01:14:27;95556.38;;;-1.32;100.00
40708;BME280;26392;42.696;23.350;2022-12-22T01:17:11;95545.22;;;-1.36;100.00
40708;BME280;26392;42.696;23.350;2022-12-22T01:19:55;95543.06;;;-1.40;100.00
40708;BME280;26392;42.696;23.350;2022-12-22T01:22:38;95537.81;;;-1.56;100.00
40708;BME280;26392;42.696;23.350;2022-12-22T01:25:22;95534.34;;;-1.65;100.00
40708;BME280;26392;42.696;23.350;2022-12-22T01:28:13;95541.53;;;-1.74;100.00
40708;BME280;26392;42.696;23.350;2022-12-22T01:31:19;95543.72;;;-1.69;100.00
40708;BME280;26392;42.696;23.350;2022-12-22T01:34:08;95534.28;;;-1.57;100.00
40708;BME280;26392;42.696;23.350;2022-12-22T01:36:52;95538.78;;;-1.49;100.00
40708;BME280;26392;42.696;23.350;2022-12-22T01:39:36;95540.78;;;-1.51;100.00
40708;BME280;26392;42.696;23.350;2022-12-22T01:42:20;95535.59;;;-1.45;100.00
40708;BME280;26392;42.696;23.350;2022-12-22T01:48:19;95534.88;;;-1.39;100.00
40708;BME280;26392;42.696;23.350;2022-12-22T01:51:10;95534.41;;;-1.42;100.00
40708;BME280;26392;42.696;23.350;2022-12-22T01:53:55;95538.56;;;-1.40;100.00
40708;BME280;26392;42.696;23.350;2022-12-22T01:56:41;95533.25;;;-1.48;100.00
40708;BME280;26392;42.696;23.350;2022-12-22T01:59:25;95540.34;;;-1.63;100.00
40708;BME280;26392;42.696;23.350;2022-12-22T02:02:09;95544.97;;;-1.57;100.00
40708;BME280;26392;42.696;23.350;2022-12-22T02:04:56;95542.03;;;-1.62;100.00
40708;BME280;26392;42.696;23.350;2022-12-22T02:07:55;95531.34;;;-1.62;100.00
40708;BME280;26392;42.696;23.350;2022-12-22T02:11:30;95535.94;;;-1.48;100.00
40708;BME280;26392;42.696;23.350;2022-12-22T02:16:57;95532.59;;;-1.50;100.00
40708;BME280;26392;42.696;23.350;2022-12-22T02:20:09;95539.72;;;-1.73;100.00
40708;BME280;26392;42.696;23.350;2022-12-22T02:24:09;95523.91;;;-1.83;100.00
40708;BME280;26392;42.696;23.350;2022-12-22T02:29:18;95538.88;;;-1.74;100.00
40708;BME280;26392;42.696;23.350;2022-12-22T02:32:03;95540.72;;;-1.74;100.00
40708;BME280;26392;42.696;23.350;2022-12-22T02:34:47;95536.03;;;-1.72;100.00
40708;BME280;26392;42.696;23.350;2022-12-22T02:40:49;95525.75;;;-1.84;100.00
40708;BME280;26392;42.696;23.350;2022-12-22T02:43:57;95533.91;;;-1.85;100.00
40708;BME280;26392;42.696;23.350;2022-12-22T02:50:15;95532.59;;;-1.89;100.00
40708;BME280;26392;42.696;23.350;2022-12-22T02:52:55;95526.09;;;-1.87;100.00
40708;BME280;26392;42.696;23.350;2022-12-22T02:55:40;95518.56;;;-1.83;100.00
40708;BME280;26392;42.696;23.350;2022-12-22T02:58:24;95521.91;;;-1.81;100.00
40708;BME280;26392;42.696;23.350;2022-12-22T03:01:08;95520.53;;;-1.77;100.00
40708;BME280;26392;42.696;23.350;2022-12-22T03:03:52;95525.88;;;-1.77;100.00
40708;BME280;26392;42.696;23.350;2022-12-22T03:06:36;95516.88;;;-1.76;100.00
40708;BME280;26392;42.696;23.350;2022-12-22T03:09:20;95515.50;;;-1.72;100.00
40708;BME280;26392;42.696;23.350;2022-12-22T03:12:04;95518.31;;;-1.65;100.00
40708;BME280;26392;42.696;23.350;2022-12-22T03:14:48;95521.31;;;-1.68;100.00
40708;BME280;26392;42.696;23.350;2022-12-22T03:17:32;95526.84;;;-1.70;100.00
40708;BME280;26392;42.696;23.350;2022-12-22T03:20:16;95518.16;;;-1.72;100.00
40708;BME280;26392;42.696;23.350;2022-12-22T03:23:04;95523.72;;;-1.73;100.00
40708;BME280;26392;42.696;23.350;2022-12-22T03:25:48;95517.84;;;-1.77;100.00
40708;BME280;26392;42.696;23.350;2022-12-22T03:28:22;95525.56;;;-1.82;100.00
40708;BME280;26392;42.696;23.350;2022-12-22T03:31:00;95521.31;;;-1.68;100.00
40708;BME280;26392;42.696;23.350;2022-12-22T03:33:27;95522.34;;;-1.69;100.00
40708;BME280;26392;42.696;23.350;2022-12-22T03:35:53;95526.19;;;-1.72;100.00
40708;BME280;26392;42.696;23.350;2022-12-22T03:38:19;95523.50;;;-1.72;100.00
40708;BME280;26392;42.696;23.350;2022-12-22T03:40:44;95524.59;;;-1.89;100.00
40708;BME280;26392;42.696;23.350;2022-12-22T03:43:11;95526.78;;;-1.93;100.00
40708;BME280;26392;42.696;23.350;2022-12-22T03:45:56;95520.69;;;-2.18;100.00
40708;BME280;26392;42.696;23.350;2022-12-22T03:48:39;95529.38;;;-2.24;100.00
40708;BME280;26392;42.696;23.350;2022-12-22T03:51:04;95522.03;;;-2.30;100.00
40708;BME280;26392;42.696;23.350;2022-12-22T03:53:30;95528.38;;;-2.31;100.00
40708;BME280;26392;42.696;23.350;2022-12-22T03:55:55;95533.03;;;-2.17;100.00
40708;BME280;26392;42.696;23.350;2022-12-22T03:58:20;95528.97;;;-2.05;100.00
40708;BME280;26392;42.696;23.350;2022-12-22T04:00:46;95525.34;;;-2.12;100.00
40708;BME280;26392;42.696;23.350;2022-12-22T04:03:11;95521.63;;;-2.03;100.00
40708;BME280;26392;42.696;23.350;2022-12-22T04:05:37;95523.94;;;-1.99;100.00
40708;BME280;26392;42.696;23.350;2022-12-22T04:08:02;95530.66;;;-2.04;100.00
40708;BME280;26392;42.696;23.350;2022-12-22T04:10:27;95534.47;;;-1.98;100.00
40708;BME280;26392;42.696;23.350;2022-12-22T04:13:11;95534.66;;;-2.08;100.00
40708;BME280;26392;42.696;23.350;2022-12-22T04:15:36;95530.81;;;-2.05;100.00
40708;BME280;26392;42.696;23.350;2022-12-22T04:18:02;95520.94;;;-1.96;100.00
40708;BME280;26392;42.696;23.350;2022-12-22T04:20:27;95520.47;;;-2.00;100.00
40708;BME280;26392;42.696;23.350;2022-12-22T04:22:54;95523.63;;;-2.05;100.00
40708;BME280;26392;42.696;23.350;2022-12-22T04:25:20;95520.97;;;-2.05;100.00
40708;BME280;26392;42.696;23.350;2022-12-22T04:27:46;95523.69;;;-2.13;100.00
40708;BME280;26392;42.696;23.350;2022-12-22T04:30:12;95519.53;;;-2.23;100.00
40708;BME280;26392;42.696;23.350;2022-12-22T04:32:37;95519.53;;;-2.23;100.00
40708;BME280;26392;42.696;23.350;2022-12-22T04:35:04;95520.84;;;-2.19;100.00
40708;BME280;26392;42.696;23.350;2022-12-22T04:37:29;95519.34;;;-2.14;100.00
40708;BME280;26392;42.696;23.350;2022-12-22T04:39:55;95522.66;;;-2.12;100.00
40708;BME280;26392;42.696;23.350;2022-12-22T04:42:20;95527.19;;;-2.12;100.00
40708;BME280;26392;42.696;23.350;2022-12-22T04:44:46;95526.03;;;-2.18;100.00
40708;BME280;26392;42.696;23.350;2022-12-22T04:47:11;95523.50;;;-2.11;100.00
40708;BME280;26392;42.696;23.350;2022-12-22T04:49:36;95532.31;;;-2.03;100.00
40708;BME280;26392;42.696;23.350;2022-12-22T04:52:02;95521.44;;;-1.93;100.00
40708;BME280;26392;42.696;23.350;2022-12-22T04:54:27;95528.94;;;-1.96;100.00
40708;BME280;26392;42.696;23.350;2022-12-22T04:56:53;95523.47;;;-2.03;100.00
40708;BME280;26392;42.696;23.350;2022-12-22T04:59:18;95516.63;;;-2.06;100.00
40708;BME280;26392;42.696;23.350;2022-12-22T05:01:43;95507.09;;;-2.00;100.00
40708;BME280;26392;42.696;23.350;2022-12-22T05:04:09;95512.94;;;-1.96;100.00
40708;BME280;26392;42.696;23.350;2022-12-22T05:06:34;95510.94;;;-2.03;100.00
40708;BME280;26392;42.696;23.350;2022-12-22T05:08:59;95514.63;;;-2.04;100.00
40708;BME280;26392;42.696;23.350;2022-12-22T05:11:25;95520.47;;;-2.08;100.00
40708;BME280;26392;42.696;23.350;2022-12-22T05:13:50;95518.97;;;-2.11;100.00
40708;BME280;26392;42.696;23.350;2022-12-22T05:16:16;95521.34;;;-2.16;100.00
40708;BME280;26392;42.696;23.350;2022-12-22T05:18:42;95521.84;;;-2.12;100.00
40708;BME280;26392;42.696;23.350;2022-12-22T05:21:14;95526.19;;;-2.19;100.00
40708;BME280;26392;42.696;23.350;2022-12-22T05:23:40;95526.72;;;-2.24;100.00
40708;BME280;26392;42.696;23.350;2022-12-22T05:26:06;95520.69;;;-2.18;100.00
40708;BME280;26392;42.696;23.350;2022-12-22T05:28:32;95531.69;;;-2.13;100.00
40708;BME280;26392;42.696;23.350;2022-12-22T05:31:03;95534.19;;;-2.11;100.00
40708;BME280;26392;42.696;23.350;2022-12-22T05:33:28;95532.00;;;-2.16;100.00
40708;BME280;26392;42.696;23.350;2022-12-22T05:35:54;95536.34;;;-2.07;100.00
40708;BME280;26392;42.696;23.350;2022-12-22T05:38:19;95535.00;;;-2.11;100.00
40708;BME280;26392;42.696;23.350;2022-12-22T05:40:45;95539.03;;;-2.15;100.00
40708;BME280;26392;42.696;23.350;2022-12-22T05:43:10;95526.84;;;-2.09;100.00
40708;BME280;26392;42.696;23.350;2022-12-22T05:45:35;95533.66;;;-2.07;100.00
40708;BME280;26392;42.696;23.350;2022-12-22T05:48:01;95533.31;;;-2.04;100.00
40708;BME280;26392;42.696;23.350;2022-12-22T05:50:26;95524.97;;;-2.00;100.00
40708;BME280;26392;42.696;23.350;2022-12-22T05:52:53;95527.81;;;-2.02;100.00
40708;BME280;26392;42.696;23.350;2022-12-22T05:55:18;95534.63;;;-1.99;100.00
40708;BME280;26392;42.696;23.350;2022-12-22T05:57:44;95530.09;;;-1.91;100.00
40708;BME280;26392;42.696;23.350;2022-12-22T06:00:12;95536.97;;;-1.96;100.00
40708;BME280;26392;42.696;23.350;2022-12-22T06:02:39;95538.22;;;-2.15;100.00
40708;BME280;26392;42.696;23.350;2022-12-22T06:05:05;95535.81;;;-2.02;100.00
40708;BME280;26392;42.696;23.350;2022-12-22T06:07:31;95539.97;;;-1.99;100.00
40708;BME280;26392;42.696;23.350;2022-12-22T06:09:56;95540.66;;;-2.06;100.00
40708;BME280;26392;42.696;23.350;2022-12-22T06:12:22;95536.28;;;-1.90;100.00
40708;BME280;26392;42.696;23.350;2022-12-22T06:14:47;95531.78;;;-1.90;100.00
40708;BME280;26392;42.696;23.350;2022-12-22T06:17:13;95531.28;;;-1.93;100.00
40708;BME280;26392;42.696;23.350;2022-12-22T06:19:38;95532.97;;;-1.92;100.00
40708;BME280;26392;42.696;23.350;2022-12-22T06:22:03;95523.03;;;-1.75;100.00
40708;BME280;26392;42.696;23.350;2022-12-22T06:24:29;95529.19;;;-1.67;100.00
40708;BME280;26392;42.696;23.350;2022-12-22T06:26:54;95524.97;;;-1.61;100.00
40708;BME280;26392;42.696;23.350;2022-12-22T06:29:20;95533.53;;;-1.74;100.00
40708;BME280;26392;42.696;23.350;2022-12-22T06:31:45;95537.38;;;-1.76;100.00
40708;BME280;26392;42.696;23.350;2022-12-22T06:34:11;95536.06;;;-1.81;100.00
40708;BME280;26392;42.696;23.350;2022-12-22T06:36:36;95533.78;;;-1.92;100.00
40708;BME280;26392;42.696;23.350;2022-12-22T06:39:04;95536.97;;;-1.96;100.00
40708;BME280;26392;42.696;23.350;2022-12-22T06:41:29;95540.03;;;-1.68;100.00
40708;BME280;26392;42.696;23.350;2022-12-22T06:44:13;95537.94;;;-1.50;100.00
40708;BME280;26392;42.696;23.350;2022-12-22T06:46:38;95538.38;;;-1.38;100.00
40708;BME280;26392;42.696;23.350;2022-12-22T06:49:03;95535.50;;;-1.28;100.00
40708;BME280;26392;42.696;23.350;2022-12-22T06:51:29;95551.34;;;-1.27;100.00
40708;BME280;26392;42.696;23.350;2022-12-22T06:53:54;95552.34;;;-1.28;100.00
40708;BME280;26392;42.696;23.350;2022-12-22T06:56:20;95550.00;;;-1.23;100.00
40708;BME280;26392;42.696;23.350;2022-12-22T06:58:45;95549.28;;;-1.17;100.00
40708;BME280;26392;42.696;23.350;2022-12-22T07:01:11;95550.13;;;-0.93;100.00
40708;BME280;26392;42.696;23.350;2022-12-22T07:03:36;95544.19;;;-0.80;100.00
40708;BME280;26392;42.696;23.350;2022-12-22T07:06:01;95547.59;;;-0.86;100.00
40708;BME280;26392;42.696;23.350;2022-12-22T07:08:27;95551.75;;;-0.84;100.00
40708;BME280;26392;42.696;23.350;2022-12-22T07:10:52;95557.84;;;-0.98;100.00
40708;BME280;26392;42.696;23.350;2022-12-22T07:13:25;95548.22;;;-0.84;100.00
40708;BME280;26392;42.696;23.350;2022-12-22T07:15:52;95552.63;;;-0.92;100.00
40708;BME280;26392;42.696;23.350;2022-12-22T07:18:18;95550.53;;;-0.81;100.00
40708;BME280;26392;42.696;23.350;2022-12-22T07:20:43;95550.09;;;-0.70;100.00
40708;BME280;26392;42.696;23.350;2022-12-22T07:23:08;95546.44;;;-0.69;100.00
40708;BME280;26392;42.696;23.350;2022-12-22T07:25:34;95549.28;;;-0.48;100.00
40708;BME280;26392;42.696;23.350;2022-12-22T07:27:59;95548.84;;;-0.59;100.00
40708;BME280;26392;42.696;23.350;2022-12-22T07:30:25;95545.28;;;-0.52;100.00
40708;BME280;26392;42.696;23.350;2022-12-22T07:32:50;95545.31;;;-0.37;100.00
40708;BME280;26392;42.696;23.350;2022-12-22T07:35:15;95553.25;;;-0.43;100.00
40708;BME280;26392;42.696;23.350;2022-12-22T07:37:41;95550.19;;;-0.40;100.00
40708;BME280;26392;42.696;23.350;2022-12-22T07:40:07;95546.44;;;-0.31;100.00
40708;BME280;26392;42.696;23.350;2022-12-22T07:42:33;95542.47;;;-0.20;100.00
40708;BME280;26392;42.696;23.350;2022-12-22T07:45:15;95536.00;;;-0.11;100.00
40708;BME280;26392;42.696;23.350;2022-12-22T07:47:42;95551.81;;;-0.16;100.00
40708;BME280;26392;42.696;23.350;2022-12-22T07:50:11;95545.66;;;-0.02;100.00
40708;BME280;26392;42.696;23.350;2022-12-22T07:53:01;95542.16;;;-0.03;100.00
40708;BME280;26392;42.696;23.350;2022-12-22T07:55:30;95559.78;;;0.07;100.00
40708;BME280;26392;42.696;23.350;2022-12-22T07:57:56;95554.50;;;-0.02;100.00
40708;BME280;26392;42.696;23.350;2022-12-22T08:00:22;95542.97;;;0.13;100.00
40708;BME280;26392;42.696;23.350;2022-12-22T08:02:52;95545.19;;;0.24;100.00
40708;BME280;26392;42.696;23.350;2022-12-22T08:05:20;95547.66;;;0.11;100.00
40708;BME280;26392;42.696;23.350;2022-12-22T08:07:48;95522.16;;;-0.15;100.00
40708;BME280;26392;42.696;23.350;2022-12-22T08:10:14;95542.69;;;0.08;100.00
40708;BME280;26392;42.696;23.350;2022-12-22T08:12:40;95543.41;;;0.16;100.00
40708;BME280;26392;42.696;23.350;2022-12-22T08:15:06;95537.59;;;0.28;100.00
40708;BME280;26392;42.696;23.350;2022-12-22T08:17:32;95541.00;;;0.51;100.00
40708;BME280;26392;42.696;23.350;2022-12-22T08:19:58;95530.28;;;0.36;100.00
40708;BME280;26392;42.696;23.350;2022-12-22T08:22:23;95527.97;;;0.48;100.00
40708;BME280;26392;42.696;23.350;2022-12-22T08:24:52;95536.25;;;0.68;100.00
40708;BME280;26392;42.696;23.350;2022-12-22T08:30:22;95542.72;;;0.74;100.00
40708;BME280;26392;42.696;23.350;2022-12-22T08:32:49;95540.31;;;0.79;100.00
40708;BME280;26392;42.696;23.350;2022-12-22T08:35:15;95544.16;;;0.91;100.00
40708;BME280;26392;42.696;23.350;2022-12-22T08:37:44;95539.06;;;0.96;100.00
40708;BME280;26392;42.696;23.350;2022-12-22T08:40:15;95538.84;;;0.98;100.00
40708;BME280;26392;42.696;23.350;2022-12-22T08:42:42;95536.44;;;1.03;100.00
40708;BME280;26392;42.696;23.350;2022-12-22T08:45:08;95534.25;;;0.92;100.00
40708;BME280;26392;42.696;23.350;2022-12-22T08:47:35;95524.34;;;0.92;100.00
40708;BME280;26392;42.696;23.350;2022-12-22T08:50:00;95528.66;;;1.08;100.00
40708;BME280;26392;42.696;23.350;2022-12-22T08:52:26;95527.31;;;1.19;100.00
40708;BME280;26392;42.696;23.350;2022-12-22T08:54:51;95513.91;;;1.19;100.00
40708;BME280;26392;42.696;23.350;2022-12-22T08:57:16;95512.81;;;1.34;100.00
40708;BME280;26392;42.696;23.350;2022-12-22T08:59:42;95511.03;;;1.48;100.00
40708;BME280;26392;42.696;23.350;2022-12-22T09:02:07;95506.94;;;1.74;100.00
40708;BME280;26392;42.696;23.350;2022-12-22T09:04:33;95511.97;;;1.90;100.00
40708;BME280;26392;42.696;23.350;2022-12-22T09:06:59;95500.94;;;2.07;100.00
40708;BME280;26392;42.696;23.350;2022-12-22T09:09:28;95502.16;;;2.04;100.00
40708;BME280;26392;42.696;23.350;2022-12-22T09:11:54;95491.22;;;2.06;100.00
40708;BME280;26392;42.696;23.350;2022-12-22T09:14:20;95490.25;;;2.20;100.00
40708;BME280;26392;42.696;23.350;2022-12-22T09:16:45;95475.84;;;2.34;100.00
40708;BME280;26392;42.696;23.350;2022-12-22T09:19:12;95482.75;;;2.50;100.00
40708;BME280;26392;42.696;23.350;2022-12-22T09:21:37;95480.13;;;2.63;100.00
40708;BME280;26392;42.696;23.350;2022-12-22T09:24:03;95481.38;;;2.74;100.00
40708;BME280;26392;42.696;23.350;2022-12-22T09:26:29;95471.47;;;2.81;100.00
40708;BME280;26392;42.696;23.350;2022-12-22T09:28:54;95469.84;;;2.87;100.00
40708;BME280;26392;42.696;23.350;2022-12-22T09:31:21;95479.41;;;3.03;100.00
40708;BME280;26392;42.696;23.350;2022-12-22T09:33:47;95477.13;;;3.06;100.00
40708;BME280;26392;42.696;23.350;2022-12-22T09:36:16;95473.97;;;2.96;100.00
40708;BME280;26392;42.696;23.350;2022-12-22T09:38:42;95475.44;;;2.92;100.00
40708;BME280;26392;42.696;23.350;2022-12-22T09:41:34;95471.72;;;3.06;100.00
40708;BME280;26392;42.696;23.350;2022-12-22T09:44:02;95472.72;;;2.85;100.00
40708;BME280;26392;42.696;23.350;2022-12-22T09:46:31;95462.81;;;2.99;100.00
40708;BME280;26392;42.696;23.350;2022-12-22T09:48:58;95466.56;;;3.25;100.00
40708;BME280;26392;42.696;23.350;2022-12-22T09:51:23;95460.38;;;3.31;100.00
40708;BME280;26392;42.696;23.350;2022-12-22T09:53:59;95457.47;;;3.46;100.00
40708;BME280;26392;42.696;23.350;2022-12-22T09:56:26;95447.94;;;3.63;100.00
40708;BME280;26392;42.696;23.350;2022-12-22T09:58:52;95454.97;;;3.77;100.00
40708;BME280;26392;42.696;23.350;2022-12-22T10:09:49;95430.88;;;3.89;100.00
40708;BME280;26392;42.696;23.350;2022-12-22T10:12:21;95422.19;;;3.80;100.00
40708;BME280;26392;42.696;23.350;2022-12-22T10:14:49;95413.69;;;3.84;100.00
40708;BME280;26392;42.696;23.350;2022-12-22T10:17:33;95417.19;;;4.04;100.00
40708;BME280;26392;42.696;23.350;2022-12-22T10:22:53;95407.06;;;3.93;100.00
40708;BME280;26392;42.696;23.350;2022-12-22T10:25:32;95401.22;;;4.09;100.00
40708;BME280;26392;42.696;23.350;2022-12-22T10:27:59;95405.91;;;4.27;99.25
40708;BME280;26392;42.696;23.350;2022-12-22T10:30:31;95395.94;;;4.34;98.38
40708;BME280;26392;42.696;23.350;2022-12-22T10:35:55;95387.53;;;4.49;96.73
40708;BME280;26392;42.696;23.350;2022-12-22T10:38:25;95389.13;;;4.63;95.49
40708;BME280;26392;42.696;23.350;2022-12-22T10:40:56;95386.63;;;4.68;93.86
40708;BME280;26392;42.696;23.350;2022-12-22T10:43:26;95383.03;;;4.75;92.29
40708;BME280;26392;42.696;23.350;2022-12-22T10:45:54;95378.84;;;4.79;91.05
40708;BME280;26392;42.696;23.350;2022-12-22T10:48:28;95361.19;;;4.83;89.51
40708;BME280;26392;42.696;23.350;2022-12-22T10:50:55;95364.94;;;5.07;88.88
40708;BME280;26392;42.696;23.350;2022-12-22T10:53:43;95364.41;;;5.23;85.87
40708;BME280;26392;42.696;23.350;2022-12-22T10:56:30;95370.53;;;5.37;84.29
40708;BME280;26392;42.696;23.350;2022-12-22T11:01:30;95356.72;;;5.27;80.71
40708;BME280;26392;42.696;23.350;2022-12-22T11:03:56;95355.66;;;5.28;80.35
40708;BME280;26392;42.696;23.350;2022-12-22T11:06:22;95352.59;;;5.43;79.66
40708;BME280;26392;42.696;23.350;2022-12-22T11:08:48;95354.13;;;5.57;80.17
40708;BME280;26392;42.696;23.350;2022-12-22T11:11:31;95343.84;;;5.66;78.43
40708;BME280;26392;42.696;23.350;2022-12-22T11:17:46;95338.09;;;5.80;76.18
40708;BME280;26392;42.696;23.350;2022-12-22T11:33:33;95320.97;;;5.87;74.36
40708;BME280;26392;42.696;23.350;2022-12-22T11:39:16;95320.91;;;6.12;74.05
40708;BME280;26392;42.696;23.350;2022-12-22T11:44:38;95320.75;;;6.25;73.05
40708;BME280;26392;42.696;23.350;2022-12-22T11:55:33;95317.84;;;6.68;67.43
40708;BME280;26392;42.696;23.350;2022-12-22T12:04:00;95302.69;;;6.67;67.50
40708;BME280;26392;42.696;23.350;2022-12-22T12:14:47;95283.88;;;6.84;67.08
40708;BME280;26392;42.696;23.350;2022-12-22T12:20:07;95283.28;;;6.82;68.22
40708;BME280;26392;42.696;23.350;2022-12-22T12:22:47;95280.13;;;6.97;68.14
40708;BME280;26392;42.696;23.350;2022-12-22T12:31:12;95279.56;;;7.30;65.61
40708;BME280;26392;42.696;23.350;2022-12-22T12:33:55;95276.63;;;7.32;65.57
40708;BME280;26392;42.696;23.350;2022-12-22T12:44:34;95276.63;;;7.55;63.57
40708;BME280;26392;42.696;23.350;2022-12-22T12:47:06;95276.50;;;7.62;62.26
40708;BME280;26392;42.696;23.350;2022-12-22T12:52:00;95271.19;;;7.67;62.74
40708;BME280;26392;42.696;23.350;2022-12-22T12:54:45;95266.38;;;7.57;63.39
40708;BME280;26392;42.696;23.350;2022-12-22T12:57:46;95266.81;;;7.66;63.43
40708;BME280;26392;42.696;23.350;2022-12-22T13:03:10;95261.88;;;7.63;62.63
40708;BME280;26392;42.696;23.350;2022-12-22T13:23:38;95257.53;;;7.38;67.00
40708;BME280;26392;42.696;23.350;2022-12-22T13:26:07;95254.72;;;7.45;66.92
40708;BME280;26392;42.696;23.350;2022-12-22T13:28:35;95257.88;;;7.30;67.34
40708;BME280;26392;42.696;23.350;2022-12-22T13:31:11;95259.78;;;7.18;68.73
40708;BME280;26392;42.696;23.350;2022-12-22T13:33:38;95251.31;;;7.14;69.58
40708;BME280;26392;42.696;23.350;2022-12-22T13:36:12;95260.47;;;7.13;69.85
40708;BME280;26392;42.696;23.350;2022-12-22T13:38:40;95249.38;;;6.91;71.77
40708;BME280;26392;42.696;23.350;2022-12-22T13:41:16;95251.75;;;6.88;72.03
40708;BME280;26392;42.696;23.350;2022-12-22T13:43:52;95242.53;;;6.77;73.06
40708;BME280;26392;42.696;23.350;2022-12-22T13:46:18;95250.66;;;6.77;73.66
40708;BME280;26392;42.696;23.350;2022-12-22T13:48:46;95240.69;;;6.89;73.53
40708;BME280;26392;42.696;23.350;2022-12-22T13:51:24;95242.94;;;6.92;73.18
40708;BME280;26392;42.696;23.350;2022-12-22T13:53:54;95231.50;;;6.90;73.82
40708;BME280;26392;42.696;23.350;2022-12-22T13:56:34;95236.44;;;6.93;73.49
40708;BME280;26392;42.696;23.350;2022-12-22T13:59:01;95235.59;;;6.81;73.85
40708;BME280;26392;42.696;23.350;2022-12-22T14:01:27;95233.13;;;6.80;74.64
40708;BME280;26392;42.696;23.350;2022-12-22T14:04:01;95236.66;;;6.80;74.57
40708;BME280;26392;42.696;23.350;2022-12-22T14:06:35;95234.06;;;6.85;74.61
40708;BME280;26392;42.696;23.350;2022-12-22T14:09:21;95229.78;;;6.66;75.58
40708;BME280;26392;42.696;23.350;2022-12-22T14:14:36;95227.88;;;6.55;77.11
40708;BME280;26392;42.696;23.350;2022-12-22T14:17:03;95237.44;;;6.69;75.72
40708;BME280;26392;42.696;23.350;2022-12-22T14:19:36;95220.63;;;6.67;75.21
40708;BME280;26392;42.696;23.350;2022-12-22T14:22:06;95231.22;;;6.68;75.40
40708;BME280;26392;42.696;23.350;2022-12-22T14:24:36;95214.28;;;6.73;73.67
40708;BME280;26392;42.696;23.350;2022-12-22T14:27:14;95225.44;;;6.65;73.82
40708;BME280;26392;42.696;23.350;2022-12-22T14:29:41;95230.03;;;6.53;75.13
40708;BME280;26392;42.696;23.350;2022-12-22T14:32:07;95224.09;;;6.44;75.65
40708;BME280;26392;42.696;23.350;2022-12-22T14:34:34;95231.22;;;6.26;77.43
40708;BME280;26392;42.696;23.350;2022-12-22T14:37:00;95225.22;;;6.24;77.13
40708;BME280;26392;42.696;23.350;2022-12-22T14:39:28;95223.34;;;6.25;75.57
40708;BME280;26392;42.696;23.350;2022-12-22T14:42:01;95229.09;;;6.17;75.15
40708;BME280;26392;42.696;23.350;2022-12-22T14:44:30;95226.69;;;6.09;75.67
40708;BME280;26392;42.696;23.350;2022-12-22T14:52:24;95237.41;;;5.67;78.94
40708;BME280;26392;42.696;23.350;2022-12-22T14:54:52;95225.53;;;5.49;79.83
40708;BME280;26392;42.696;23.350;2022-12-22T14:57:38;95234.22;;;5.51;79.78
40708;BME280;26392;42.696;23.350;2022-12-22T15:00:25;95228.16;;;5.56;79.76
40708;BME280;26392;42.696;23.350;2022-12-22T15:02:57;95234.78;;;5.42;80.61
40708;BME280;26392;42.696;23.350;2022-12-22T15:05:29;95240.38;;;5.40;80.91
40708;BME280;26392;42.696;23.350;2022-12-22T15:07:57;95241.28;;;5.34;81.34
40708;BME280;26392;42.696;23.350;2022-12-22T15:10:25;95239.56;;;5.21;82.20
40708;BME280;26392;42.696;23.350;2022-12-22T15:12:57;95238.09;;;5.00;83.16
40708;BME280;26392;42.696;23.350;2022-12-22T15:15:23;95239.66;;;4.89;83.40
40708;BME280;26392;42.696;23.350;2022-12-22T15:17:51;95237.47;;;4.98;83.95
40708;BME280;26392;42.696;23.350;2022-12-22T15:20:22;95243.13;;;4.97;84.55
40708;BME280;26392;42.696;23.350;2022-12-22T15:22:48;95233.75;;;4.99;84.43
40708;BME280;26392;42.696;23.350;2022-12-22T15:25:16;95241.25;;;4.97;84.86